This is the latest recevied weather packets stored in our database for station/object HA9OZD-18. If no packets are shown the sender has not sent any weather packets the latest 10 day(s).
| Time | Temp. | Humidity | Pressure | Rain* | Wind** | Luminosity | Snow |
|---|---|---|---|---|---|---|---|
| 1787510708 | 15.56° C | 39% | 1020.3 hPa | - | - | - | - |
| 1787510697 | 15.56° C | 39% | 1020.3 hPa | - | - | - | - |
| 1787507097 | 16.67° C | 36% | 1019.9 hPa | - | - | - | - |
| 1787503497 | 17.78° C | 33% | 1019.7 hPa | - | - | - | - |
| 1787499897 | 19.44° C | 29% | 1019.9 hPa | - | - | - | - |
| 1787496296 | 20.56° C | 27% | 1019.8 hPa | - | - | - | - |
| 1787492696 | 21.67° C | 25% | 1019.8 hPa | - | - | - | - |
| 1787489096 | 27.78° C | 18% | 1020.1 hPa | - | - | - | - |
| 1787485496 | 21.11° C | 29% | 1020.2 hPa | - | - | - | - |
| 1787481895 | 19.44° C | 35% | 1020.3 hPa | - | - | - | - |
| 1787478295 | 18.33° C | 38% | 1020.6 hPa | - | - | - | - |
| 1787474695 | 15.56° C | 53% | 1020.4 hPa | - | - | - | - |
| 1787471095 | 15.56° C | 59% | 1020.2 hPa | - | - | - | - |
| 1787467494 | 13.89° C | 68% | 1019.9 hPa | - | - | - | - |
| 1787463894 | 12.22° C | 77% | 1019.6 hPa | - | - | - | - |
| 1787461513 | 11.11° C | 86% | 1018.9 hPa | - | - | - | - |
| 1787460294 | 11.11° C | 86% | 1018.9 hPa | - | - | - | - |
| 1787456693 | 10° C | 91% | 1018.6 hPa | - | - | - | - |
| 1787453093 | 11.11° C | 82% | 1018.4 hPa | - | - | - | - |
| 1787449553 | 11.67° C | 81% | 1017.9 hPa | - | - | - | - |
| 1787449493 | 11.67° C | 81% | 1017.9 hPa | - | - | - | - |
| 1787445893 | 12.22° C | 72% | 1017.4 hPa | - | - | - | - |
| 1787442292 | 12.78° C | 69% | 1017.4 hPa | - | - | - | - |
| 1787438692 | 13.33° C | 61% | 1017.7 hPa | - | - | - | - |
| 1787435092 | 13.89° C | 61% | 1017.6 hPa | - | - | - | - |
* Rain since midnight (hover to see other rain measurements)
** Current wind speed in m/s (hover to see current wind gust speed)